2016 Cux-Wetter.de -Die Nutzung der Wetterdaten nur mit ausdrcklicher Genehmigung
Wetterdaten: Woche 24.10.16 - 30.10.16 (KW43)
Datum Zeit Temp. A. Feuchte A. Luftdruck Regen Wind Richtung Sonnenschein Solar Taupunkt Windchill Windben
24.10.2016 00:00 6,6 C 95 % 1015,1 hPa 0,0 l/m 1,9 km/h (1 Bft) O-SO 0,00 h 0 W/m 5,8 C 6,6 C 5,4 km/h (2 Bft)
24.10.2016 01:00 6,2 C 95 % 1015,2 hPa 0,0 l/m 1,8 km/h (1 Bft) NO 0,00 h 0 W/m 5,5 C 6,2 C 5,6 km/h (2 Bft)
24.10.2016 02:00 6,1 C 95 % 1015,3 hPa 0,0 l/m 1,8 km/h (1 Bft) NO 0,00 h 0 W/m 5,3 C 6,1 C 5,6 km/h (2 Bft)
24.10.2016 03:00 5,7 C 96 % 1015,5 hPa 0,0 l/m 2,0 km/h (1 Bft) O 0,00 h 0 W/m 5,1 C 5,7 C 5,9 km/h (2 Bft)
24.10.2016 04:00 5,6 C 96 % 1015,6 hPa 0,0 l/m 2,0 km/h (1 Bft) O 0,00 h 0 W/m 5,0 C 5,6 C 6,3 km/h (2 Bft)
24.10.2016 05:00 5,7 C 96 % 1015,3 hPa 0,0 l/m 3,2 km/h (1 Bft) O-NO 0,00 h 0 W/m 5,1 C 5,7 C 9,6 km/h (2 Bft)
24.10.2016 06:00 5,5 C 96 % 1016,0 hPa 0,2 l/m 2,1 km/h (1 Bft) O-NO 0,00 h 0 W/m 4,9 C 5,5 C 5,6 km/h (2 Bft)
24.10.2016 07:00 5,6 C 97 % 1016,2 hPa 0,0 l/m 2,7 km/h (1 Bft) N-NO 0,00 h 0 W/m 5,2 C 5,6 C 7,2 km/h (2 Bft)
24.10.2016 08:00 5,9 C 97 % 1016,4 hPa 0,0 l/m 2,7 km/h (1 Bft) NO 0,00 h 10 W/m 5,5 C 5,9 C 8,3 km/h (2 Bft)
24.10.2016 09:00 6,5 C 97 % 1016,6 hPa 0,0 l/m 3,8 km/h (1 Bft) O-NO 0,00 h 19 W/m 6,0 C 6,5 C 10,9 km/h (2 Bft)
24.10.2016 10:00 6,8 C 97 % 1016,7 hPa 0,0 l/m 3,9 km/h (1 Bft) NO 0,00 h 41 W/m 6,4 C 6,8 C 10,4 km/h (2 Bft)
24.10.2016 11:00 7,1 C 98 % 1016,6 hPa 0,0 l/m 3,6 km/h (1 Bft) O 0,00 h 94 W/m 6,9 C 7,1 C 15,3 km/h (3 Bft)
24.10.2016 12:00 7,5 C 98 % 1016,6 hPa 0,0 l/m 4,8 km/h (1 Bft) NO 0,00 h 112 W/m 7,2 C 7,5 C 16,5 km/h (3 Bft)
24.10.2016 13:00 7,8 C 97 % 1016,5 hPa 0,0 l/m 4,8 km/h (1 Bft) NO 0,00 h 127 W/m 7,4 C 7,8 C 15,7 km/h (3 Bft)
24.10.2016 14:00 8,3 C 96 % 1016,1 hPa 0,0 l/m 4,4 km/h (1 Bft) O-NO 0,00 h 132 W/m 7,7 C 8,3 C 16,1 km/h (3 Bft)
24.10.2016 15:00 9,0 C 95 % 1016,1 hPa 0,0 l/m 4,0 km/h (1 Bft) O-NO 0,00 h 128 W/m 8,2 C 9,0 C 14,5 km/h (3 Bft)
24.10.2016 16:00 9,0 C 94 % 1016,1 hPa 0,0 l/m 3,5 km/h (1 Bft) O 0,00 h 56 W/m 8,1 C 9,0 C 10,5 km/h (2 Bft)
24.10.2016 17:00 8,7 C 94 % 1016,4 hPa 0,0 l/m 3,0 km/h (1 Bft) O-NO 0,00 h 23 W/m 7,7 C 8,7 C 8,9 km/h (2 Bft)
24.10.2016 18:00 8,4 C 94 % 1016,7 hPa 0,0 l/m 3,4 km/h (1 Bft) NO 0,00 h 0 W/m 7,5 C 8,4 C 8,9 km/h (2 Bft)
24.10.2016 19:00 8,1 C 94 % 1016,7 hPa 0,0 l/m 3,8 km/h (1 Bft) NO 0,00 h 0 W/m 7,3 C 8,1 C 10,7 km/h (2 Bft)
24.10.2016 20:00 7,7 C 94 % 1016,5 hPa 0,0 l/m 4,1 km/h (1 Bft) NO 0,00 h 0 W/m 6,8 C 7,7 C 11,3 km/h (2 Bft)
24.10.2016 21:00 7,7 C 95 % 1016,9 hPa 0,0 l/m 3,8 km/h (1 Bft) NO 0,00 h 0 W/m 6,9 C 7,7 C 10,2 km/h (2 Bft)
24.10.2016 22:00 7,8 C 95 % 1017,2 hPa 0,0 l/m 3,0 km/h (1 Bft) O-NO 0,00 h 0 W/m 7,0 C 7,8 C 8,4 km/h (2 Bft)
24.10.2016 23:00 7,3 C 95 % 1017,2 hPa 0,0 l/m 2,0 km/h (1 Bft) NO 0,00 h 0 W/m 6,5 C 7,3 C 6,5 km/h (2 Bft)
25.10.2016 00:00 6,6 C 95 % 1017,3 hPa 0,0 l/m 1,1 km/h (0 Bft) O-NO 0,00 h 0 W/m 5,9 C 6,6 C 4,6 km/h (1 Bft)
25.10.2016 01:00 6,1 C 95 % 1017,7 hPa 0,0 l/m 0,5 km/h (0 Bft) N-NO 0,00 h 0 W/m 5,3 C 6,1 C 2,7 km/h (1 Bft)
25.10.2016 02:00 6,2 C 96 % 1017,8 hPa 0,0 l/m 1,1 km/h (1 Bft) N-NW 0,00 h 0 W/m 5,5 C 6,2 C 4,1 km/h (1 Bft)
25.10.2016 03:00 6,4 C 96 % 1018,0 hPa 0,0 l/m 1,4 km/h (1 Bft) N-NW 0,00 h 0 W/m 5,9 C 6,4 C 4,6 km/h (1 Bft)
25.10.2016 04:00 5,8 C 96 % 1018,3 hPa 0,0 l/m 1,3 km/h (1 Bft) N-NW 0,00 h 0 W/m 5,3 C 5,8 C 4,3 km/h (1 Bft)
25.10.2016 05:00 5,6 C 96 % 1018,7 hPa 0,0 l/m 1,9 km/h (1 Bft) N 0,00 h 0 W/m 5,0 C 5,6 C 5,8 km/h (2 Bft)
25.10.2016 06:00 5,9 C 96 % 1019,1 hPa 0,0 l/m 1,4 km/h (1 Bft) N 0,00 h 0 W/m 5,3 C 5,9 C 4,2 km/h (1 Bft)
25.10.2016 07:00 6,0 C 97 % 1019,4 hPa 0,0 l/m 2,7 km/h (1 Bft) N 0,00 h 0 W/m 5,5 C 6,0 C 6,2 km/h (2 Bft)
25.10.2016 08:00 6,2 C 97 % 1019,9 hPa 0,0 l/m 2,3 km/h (1 Bft) N-NO 0,20 h 15 W/m 5,8 C 6,2 C 6,4 km/h (2 Bft)
25.10.2016 09:00 6,3 C 97 % 1021,1 hPa 0,0 l/m 1,8 km/h (1 Bft) N-NW 0,00 h 23 W/m 5,9 C 6,3 C 5,4 km/h (2 Bft)
25.10.2016 10:00 6,9 C 97 % 1021,9 hPa 0,0 l/m 2,0 km/h (1 Bft) N 0,00 h 38 W/m 6,4 C 6,9 C 5,4 km/h (2 Bft)
25.10.2016 11:00 7,9 C 97 % 1022,4 hPa 0,0 l/m 2,0 km/h (1 Bft) N-NO 0,35 h 142 W/m 7,5 C 7,9 C 5,2 km/h (1 Bft)
25.10.2016 12:00 9,2 C 95 % 1022,7 hPa 0,0 l/m 2,3 km/h (1 Bft) N 0,85 h 294 W/m 8,4 C 9,2 C 5,4 km/h (2 Bft)
25.10.2016 13:00 10,0 C 91 % 1022,9 hPa 0,0 l/m 3,4 km/h (1 Bft) N-NW 1,00 h 313 W/m 8,5 C 10,0 C 7,4 km/h (2 Bft)
25.10.2016 14:00 9,5 C 92 % 1023,2 hPa 0,0 l/m 3,5 km/h (1 Bft) N 0,55 h 231 W/m 8,2 C 9,5 C 7,5 km/h (2 Bft)
25.10.2016 15:00 8,7 C 94 % 1023,5 hPa 0,0 l/m 2,8 km/h (1 Bft) N-NW 0,40 h 154 W/m 7,8 C 8,7 C 6,2 km/h (2 Bft)
25.10.2016 16:00 8,3 C 95 % 1023,8 hPa 0,0 l/m 2,1 km/h (1 Bft) N-NW 0,05 h 55 W/m 7,5 C 8,3 C 4,6 km/h (1 Bft)
25.10.2016 17:00 7,6 C 95 % 1024,3 hPa 0,0 l/m 0,1 km/h (0 Bft) N 0,05 h 18 W/m 7,0 C 7,6 C 0,8 km/h (0 Bft)
25.10.2016 18:00 6,0 C 96 % 1024,9 hPa 0,0 l/m 0,0 km/h (0 Bft) N 0,00 h 0 W/m 5,4 C 6,0 C 0,0 km/h (0 Bft)
25.10.2016 19:00 4,7 C 97 % 1025,7 hPa 0,0 l/m 0,0 km/h (0 Bft) N 0,00 h 0 W/m 4,3 C 4,7 C 0,0 km/h (0 Bft)
25.10.2016 20:00 3,7 C 97 % 1026,0 hPa 0,0 l/m 0,1 km/h (0 Bft) N-NW 0,00 h 0 W/m 3,3 C 3,7 C 0,4 km/h (0 Bft)
25.10.2016 21:00 2,8 C 97 % 1026,1 hPa 0,0 l/m 0,1 km/h (0 Bft) N-NW 0,00 h 0 W/m 2,4 C 2,8 C 0,2 km/h (0 Bft)
25.10.2016 22:00 2,0 C 97 % 1026,3 hPa 0,0 l/m 0,4 km/h (0 Bft) N-NW 0,00 h 0 W/m 1,7 C 2,0 C 1,2 km/h (1 Bft)
25.10.2016 23:00 1,5 C 98 % 1026,5 hPa 0,0 l/m 0,3 km/h (0 Bft) N-NW 0,00 h 0 W/m 1,2 C 1,5 C 0,8 km/h (0 Bft)
26.10.2016 00:00 1,3 C 98 % 1026,9 hPa 0,0 l/m 0,2 km/h (0 Bft) N-NW 0,00 h 0 W/m 1,0 C 1,3 C 0,6 km/h (0 Bft)
26.10.2016 01:00 0,9 C 98 % 1026,9 hPa 0,0 l/m 0,8 km/h (0 Bft) N-NW 0,00 h 0 W/m 0,6 C 0,9 C 1,4 km/h (1 Bft)
26.10.2016 02:00 0,7 C 98 % 1027,0 hPa 0,0 l/m 0,5 km/h (0 Bft) NO 0,00 h 0 W/m 0,4 C 0,7 C 1,4 km/h (1 Bft)
26.10.2016 03:00 1,0 C 98 % 1027,1 hPa 0,0 l/m 0,5 km/h (0 Bft) SO 0,00 h 0 W/m 0,8 C 1,0 C 1,8 km/h (1 Bft)
26.10.2016 04:00 1,1 C 98 % 1027,1 hPa 0,0 l/m 0,9 km/h (0 Bft) SO 0,00 h 0 W/m 0,9 C 1,1 C 2,8 km/h (1 Bft)
26.10.2016 05:00 1,5 C 98 % 1027,0 hPa 0,0 l/m 0,9 km/h (0 Bft) SO 0,00 h 0 W/m 1,2 C 1,5 C 2,6 km/h (1 Bft)
26.10.2016 06:00 1,7 C 98 % 1027,2 hPa 0,0 l/m 1,0 km/h (0 Bft) SO 0,00 h 0 W/m 1,5 C 1,7 C 2,8 km/h (1 Bft)
26.10.2016 07:00 2,0 C 98 % 1027,2 hPa 0,0 l/m 1,5 km/h (1 Bft) S-SO 0,00 h 0 W/m 1,7 C 2,0 C 3,6 km/h (1 Bft)
26.10.2016 08:00 1,4 C 98 % 1027,4 hPa 0,0 l/m 0,8 km/h (0 Bft) S 0,00 h 12 W/m 1,1 C 1,4 C 2,5 km/h (1 Bft)
26.10.2016 09:00 1,6 C 98 % 1027,8 hPa 0,2 l/m 0,8 km/h (0 Bft) S 0,00 h 45 W/m 1,3 C 1,6 C 2,3 km/h (1 Bft)
26.10.2016 10:00 4,2 C 99 % 1027,6 hPa 0,0 l/m 2,4 km/h (1 Bft) S 0,00 h 95 W/m 4,1 C 4,2 C 5,0 km/h (1 Bft)
26.10.2016 11:00 6,1 C 99 % 1027,7 hPa 0,0 l/m 3,0 km/h (1 Bft) S-SO 0,05 h 139 W/m 6,0 C 6,1 C 7,0 km/h (2 Bft)
26.10.2016 12:00 7,9 C 98 % 1027,7 hPa 0,0 l/m 4,7 km/h (1 Bft) SW 0,05 h 163 W/m 7,7 C 7,9 C 9,5 km/h (2 Bft)
26.10.2016 13:00 8,6 C 95 % 1027,5 hPa 0,0 l/m 6,4 km/h (2 Bft) S-SW 0,00 h 157 W/m 7,8 C 8,2 C 12,7 km/h (3 Bft)
26.10.2016 14:00 9,6 C 90 % 1027,3 hPa 0,0 l/m 5,6 km/h (2 Bft) S 0,40 h 211 W/m 8,1 C 9,5 C 11,4 km/h (2 Bft)
26.10.2016 15:00 9,9 C 87 % 1026,9 hPa 0,0 l/m 6,7 km/h (2 Bft) S-SW 0,45 h 146 W/m 7,9 C 9,4 C 12,1 km/h (2 Bft)
26.10.2016 16:00 9,6 C 87 % 1026,6 hPa 0,0 l/m 7,3 km/h (2 Bft) SW 0,05 h 70 W/m 7,5 C 8,9 C 13,9 km/h (3 Bft)
26.10.2016 17:00 8,7 C 90 % 1026,5 hPa 0,0 l/m 4,9 km/h (1 Bft) S 0,00 h 20 W/m 7,2 C 8,6 C 9,5 km/h (2 Bft)
26.10.2016 18:00 7,7 C 94 % 1026,3 hPa 0,0 l/m 3,3 km/h (1 Bft) S 0,00 h 0 W/m 6,7 C 7,7 C 7,1 km/h (2 Bft)
26.10.2016 19:00 7,5 C 95 % 1026,2 hPa 0,0 l/m 4,1 km/h (1 Bft) S 0,00 h 0 W/m 6,8 C 7,5 C 8,2 km/h (2 Bft)
26.10.2016 20:00 8,0 C 94 % 1026,2 hPa 0,0 l/m 6,0 km/h (2 Bft) S 0,00 h 0 W/m 7,1 C 7,8 C 10,7 km/h (2 Bft)
26.10.2016 21:00 8,7 C 92 % 1026,3 hPa 0,0 l/m 8,1 km/h (2 Bft) S-SW 0,00 h 0 W/m 7,4 C 7,4 C 15,9 km/h (3 Bft)
26.10.2016 22:00 8,8 C 92 % 1025,8 hPa 0,0 l/m 9,3 km/h (2 Bft) S-SW 0,00 h 0 W/m 7,5 C 6,8 C 17,1 km/h (3 Bft)
26.10.2016 23:00 9,2 C 91 % 1025,5 hPa 0,0 l/m 11,6 km/h (2 Bft) SW 0,00 h 0 W/m 7,8 C 5,8 C 19,3 km/h (3 Bft)
27.10.2016 00:00 9,4 C 93 % 1025,4 hPa 0,0 l/m 13,1 km/h (3 Bft) SW 0,00 h 0 W/m 8,3 C 5,3 C 20,9 km/h (4 Bft)
27.10.2016 01:00 9,6 C 95 % 1025,1 hPa 0,4 l/m 12,2 km/h (2 Bft) SW 0,00 h 0 W/m 8,8 C 6,0 C 20,6 km/h (4 Bft)
27.10.2016 02:00 9,9 C 96 % 1025,2 hPa 0,0 l/m 11,5 km/h (2 Bft) SW 0,00 h 0 W/m 9,4 C 6,7 C 19,0 km/h (3 Bft)
27.10.2016 03:00 10,3 C 97 % 1025,1 hPa 0,0 l/m 12,5 km/h (2 Bft) SW 0,00 h 0 W/m 9,9 C 6,7 C 19,4 km/h (3 Bft)
27.10.2016 04:00 10,8 C 97 % 1025,1 hPa 0,0 l/m 12,9 km/h (3 Bft) SW 0,00 h 0 W/m 10,3 C 7,0 C 20,2 km/h (4 Bft)
27.10.2016 05:00 10,8 C 97 % 1025,2 hPa 0,0 l/m 12,4 km/h (2 Bft) SW 0,00 h 0 W/m 10,3 C 7,2 C 19,7 km/h (3 Bft)
27.10.2016 06:00 10,7 C 97 % 1025,6 hPa 0,0 l/m 11,0 km/h (2 Bft) W-SW 0,00 h 0 W/m 10,2 C 7,8 C 18,0 km/h (3 Bft)
27.10.2016 07:00 10,8 C 97 % 1025,7 hPa 0,0 l/m 11,1 km/h (2 Bft) SW 0,00 h 0 W/m 10,4 C 7,9 C 17,8 km/h (3 Bft)
27.10.2016 08:00 11,0 C 97 % 1026,1 hPa 0,0 l/m 12,6 km/h (2 Bft) W-SW 0,00 h 13 W/m 10,6 C 7,4 C 22,3 km/h (4 Bft)
27.10.2016 09:00 11,2 C 97 % 1026,5 hPa 0,0 l/m 13,2 km/h (3 Bft) W-SW 0,00 h 41 W/m 10,8 C 7,4 C 21,7 km/h (4 Bft)
27.10.2016 10:00 11,2 C 97 % 1027,0 hPa 0,0 l/m 12,0 km/h (2 Bft) SW 0,00 h 76 W/m 10,8 C 7,9 C 19,5 km/h (3 Bft)
27.10.2016 11:00 11,4 C 98 % 1027,5 hPa 0,0 l/m 12,7 km/h (3 Bft) SW 0,00 h 100 W/m 11,1 C 7,8 C 20,0 km/h (4 Bft)
27.10.2016 12:00 12,2 C 98 % 1027,7 hPa 0,0 l/m 15,1 km/h (3 Bft) SW 0,10 h 176 W/m 11,8 C 7,7 C 23,0 km/h (4 Bft)
27.10.2016 13:00 13,2 C 95 % 1027,7 hPa 0,0 l/m 15,4 km/h (3 Bft) SW 0,05 h 140 W/m 12,3 C 8,9 C 23,4 km/h (4 Bft)
27.10.2016 14:00 13,3 C 93 % 1027,6 hPa 0,0 l/m 13,8 km/h (3 Bft) SW 0,00 h 91 W/m 12,2 C 9,6 C 21,4 km/h (4 Bft)
27.10.2016 15:00 13,5 C 92 % 1027,4 hPa 0,0 l/m 13,1 km/h (3 Bft) SW 0,00 h 93 W/m 12,1 C 10,1 C 20,2 km/h (4 Bft)
27.10.2016 16:00 13,3 C 92 % 1027,1 hPa 0,0 l/m 12,7 km/h (3 Bft) SW 0,00 h 38 W/m 12,0 C 10,0 C 20,0 km/h (4 Bft)
27.10.2016 17:00 12,8 C 93 % 1026,9 hPa 0,0 l/m 13,2 km/h (3 Bft) S-SW 0,10 h 28 W/m 11,7 C 9,3 C 21,2 km/h (4 Bft)
27.10.2016 18:00 12,4 C 93 % 1026,8 hPa 0,0 l/m 13,6 km/h (3 Bft) SW 0,00 h 0 W/m 11,3 C 8,7 C 21,5 km/h (4 Bft)
27.10.2016 19:00 12,6 C 92 % 1026,7 hPa 0,0 l/m 14,8 km/h (3 Bft) SW 0,00 h 0 W/m 11,3 C 8,4 C 24,1 km/h (4 Bft)
27.10.2016 20:00 12,4 C 92 % 1026,7 hPa 0,0 l/m 15,9 km/h (3 Bft) SW 0,00 h 0 W/m 11,2 C 7,7 C 24,9 km/h (4 Bft)
27.10.2016 21:00 11,8 C 92 % 1026,1 hPa 0,0 l/m 16,0 km/h (3 Bft) SW 0,00 h 0 W/m 10,6 C 6,9 C 25,4 km/h (4 Bft)
27.10.2016 22:00 11,6 C 93 % 1026,0 hPa 0,0 l/m 16,2 km/h (3 Bft) SW 0,00 h 0 W/m 10,4 C 6,6 C 25,9 km/h (4 Bft)
27.10.2016 23:00 11,7 C 93 % 1025,8 hPa 0,0 l/m 15,9 km/h (3 Bft) SW 0,00 h 0 W/m 10,5 C 6,8 C 26,5 km/h (4 Bft)
28.10.2016 00:00 11,8 C 93 % 1025,3 hPa 0,0 l/m 18,3 km/h (3 Bft) SW 0,00 h 0 W/m 10,7 C 6,2 C 28,2 km/h (5 Bft)
28.10.2016 01:00 11,7 C 93 % 1024,6 hPa 0,2 l/m 18,2 km/h (3 Bft) SW 0,00 h 0 W/m 10,7 C 6,0 C 29,2 km/h (5 Bft)
28.10.2016 02:00 11,7 C 94 % 1024,8 hPa 0,0 l/m 20,8 km/h (4 Bft) SW 0,00 h 0 W/m 10,8 C 5,2 C 32,4 km/h (5 Bft)
28.10.2016 03:00 11,8 C 94 % 1024,2 hPa 0,0 l/m 19,3 km/h (3 Bft) S-SW 0,00 h 0 W/m 10,8 C 5,8 C 29,0 km/h (5 Bft)
28.10.2016 04:00 12,0 C 93 % 1023,7 hPa 0,0 l/m 21,6 km/h (4 Bft) SW 0,00 h 0 W/m 10,9 C 5,4 C 32,8 km/h (5 Bft)
28.10.2016 05:00 12,2 C 92 % 1023,6 hPa 0,0 l/m 22,2 km/h (4 Bft) SW 0,00 h 0 W/m 10,9 C 5,5 C 33,0 km/h (5 Bft)
28.10.2016 06:00 12,1 C 93 % 1023,3 hPa 0,0 l/m 20,3 km/h (4 Bft) SW 0,00 h 0 W/m 11,0 C 6,0 C 31,4 km/h (5 Bft)
28.10.2016 07:00 12,1 C 94 % 1023,0 hPa 0,0 l/m 18,0 km/h (3 Bft) SW 0,00 h 0 W/m 11,1 C 6,7 C 27,5 km/h (5 Bft)
28.10.2016 08:00 12,4 C 94 % 1023,3 hPa 0,0 l/m 15,7 km/h (3 Bft) SW 0,00 h 5 W/m 11,5 C 7,8 C 27,3 km/h (5 Bft)
28.10.2016 09:00 12,3 C 95 % 1023,7 hPa 0,0 l/m 14,3 km/h (3 Bft) W 0,00 h 11 W/m 11,6 C 8,2 C 27,0 km/h (5 Bft)
28.10.2016 10:00 12,3 C 96 % 1024,2 hPa 0,0 l/m 13,6 km/h (3 Bft) W-SW 0,00 h 15 W/m 11,7 C 8,4 C 24,8 km/h (4 Bft)
28.10.2016 11:00 12,4 C 97 % 1024,8 hPa 0,0 l/m 13,7 km/h (3 Bft) W-SW 0,00 h 53 W/m 12,0 C 8,6 C 23,4 km/h (4 Bft)
28.10.2016 12:00 13,1 C 98 % 1025,4 hPa 0,0 l/m 12,1 km/h (2 Bft) W-SW 0,00 h 123 W/m 12,7 C 10,0 C 21,0 km/h (4 Bft)
28.10.2016 13:00 13,4 C 97 % 1025,8 hPa 0,2 l/m 9,7 km/h (2 Bft) W-SW 0,00 h 99 W/m 12,9 C 11,5 C 18,3 km/h (3 Bft)
28.10.2016 14:00 13,6 C 94 % 1026,1 hPa 0,0 l/m 7,1 km/h (2 Bft) NW 0,15 h 137 W/m 12,7 C 13,0 C 14,6 km/h (3 Bft)
28.10.2016 15:00 13,2 C 89 % 1026,6 hPa 0,0 l/m 7,8 km/h (2 Bft) N-NW 0,00 h 72 W/m 11,4 C 12,3 C 16,3 km/h (3 Bft)
28.10.2016 16:00 12,6 C 85 % 1027,2 hPa 0,0 l/m 9,4 km/h (2 Bft) NW 0,00 h 61 W/m 10,1 C 10,8 C 17,4 km/h (3 Bft)
28.10.2016 17:00 11,9 C 87 % 1027,5 hPa 0,0 l/m 4,1 km/h (1 Bft) NW 0,05 h 21 W/m 9,8 C 11,9 C 9,1 km/h (2 Bft)
28.10.2016 18:00 11,5 C 86 % 1028,0 hPa 0,0 l/m 6,7 km/h (2 Bft) W 0,00 h 0 W/m 9,2 C 11,1 C 14,4 km/h (3 Bft)
28.10.2016 19:00 11,3 C 85 % 1028,5 hPa 0,0 l/m 7,1 km/h (2 Bft) W-NW 0,00 h 0 W/m 8,9 C 10,7 C 15,9 km/h (3 Bft)
28.10.2016 20:00 11,4 C 84 % 1029,0 hPa 0,0 l/m 6,6 km/h (2 Bft) W-NW 0,00 h 0 W/m 8,8 C 11,0 C 15,1 km/h (3 Bft)
28.10.2016 21:00 11,6 C 82 % 1029,3 hPa 0,0 l/m 8,3 km/h (2 Bft) NW 0,00 h 0 W/m 8,6 C 10,4 C 17,7 km/h (3 Bft)
28.10.2016 22:00 11,8 C 78 % 1029,8 hPa 0,0 l/m 10,4 km/h (2 Bft) N-NW 0,00 h 0 W/m 8,1 C 9,5 C 20,4 km/h (4 Bft)
28.10.2016 23:00 11,8 C 78 % 1029,9 hPa 0,0 l/m 8,3 km/h (2 Bft) NW 0,00 h 0 W/m 8,1 C 10,5 C 16,3 km/h (3 Bft)
29.10.2016 00:00 11,6 C 75 % 1029,8 hPa 0,0 l/m 9,3 km/h (2 Bft) NW 0,00 h 0 W/m 7,4 C 9,7 C 18,3 km/h (3 Bft)
29.10.2016 01:00 11,5 C 78 % 1029,9 hPa 0,0 l/m 6,5 km/h (2 Bft) W-NW 0,00 h 0 W/m 7,9 C 10,9 C 14,9 km/h (3 Bft)
29.10.2016 02:00 11,5 C 77 % 1030,0 hPa 0,0 l/m 7,5 km/h (2 Bft) W 0,00 h 0 W/m 7,7 C 10,7 C 15,1 km/h (3 Bft)
29.10.2016 03:00 11,5 C 79 % 1029,7 hPa 0,0 l/m 6,2 km/h (2 Bft) NW 0,00 h 0 W/m 7,9 C 11,1 C 13,5 km/h (3 Bft)
29.10.2016 04:00 11,1 C 81 % 1029,4 hPa 0,0 l/m 5,2 km/h (1 Bft) NW 0,00 h 0 W/m 7,8 C 10,8 C 12,6 km/h (2 Bft)
29.10.2016 05:00 11,2 C 80 % 1029,4 hPa 0,0 l/m 7,6 km/h (2 Bft) NW 0,00 h 0 W/m 7,8 C 10,1 C 15,8 km/h (3 Bft)
29.10.2016 06:00 11,1 C 75 % 1029,6 hPa 0,0 l/m 7,3 km/h (2 Bft) W-NW 0,00 h 0 W/m 6,9 C 10,4 C 15,9 km/h (3 Bft)
29.10.2016 07:00 11,0 C 80 % 1029,8 hPa 0,0 l/m 5,5 km/h (2 Bft) W 0,00 h 0 W/m 7,7 C 11,0 C 12,5 km/h (2 Bft)
29.10.2016 08:00 10,9 C 81 % 1030,2 hPa 0,0 l/m 4,7 km/h (1 Bft) W-NW 0,00 h 8 W/m 7,6 C 10,9 C 11,7 km/h (2 Bft)
29.10.2016 09:00 11,1 C 82 % 1030,6 hPa 0,0 l/m 4,0 km/h (1 Bft) W 0,00 h 22 W/m 8,1 C 11,1 C 10,3 km/h (2 Bft)
29.10.2016 10:00 11,6 C 81 % 1030,9 hPa 0,0 l/m 6,6 km/h (2 Bft) W-NW 0,00 h 55 W/m 8,4 C 11,1 C 15,1 km/h (3 Bft)
29.10.2016 11:00 12,2 C 78 % 1030,7 hPa 0,0 l/m 7,7 km/h (2 Bft) W 0,05 h 113 W/m 8,5 C 11,3 C 16,2 km/h (3 Bft)
29.10.2016 12:00 12,7 C 78 % 1030,7 hPa 0,0 l/m 9,5 km/h (2 Bft) W 0,10 h 159 W/m 9,0 C 10,9 C 18,7 km/h (3 Bft)
29.10.2016 13:00 12,7 C 75 % 1030,5 hPa 0,0 l/m 8,3 km/h (2 Bft) W 0,00 h 152 W/m 8,5 C 11,4 C 18,7 km/h (3 Bft)
29.10.2016 14:00 12,7 C 76 % 1030,3 hPa 0,0 l/m 9,1 km/h (2 Bft) W-NW 0,05 h 122 W/m 8,7 C 11,2 C 19,6 km/h (3 Bft)
29.10.2016 15:00 12,3 C 80 % 1030,1 hPa 0,0 l/m 9,1 km/h (2 Bft) NW 0,00 h 69 W/m 8,9 C 10,7 C 18,5 km/h (3 Bft)
29.10.2016 16:00 12,3 C 80 % 1029,9 hPa 0,0 l/m 8,6 km/h (2 Bft) W-NW 0,05 h 57 W/m 8,9 C 11,0 C 18,3 km/h (3 Bft)
29.10.2016 17:00 11,8 C 82 % 1029,8 hPa 0,0 l/m 7,6 km/h (2 Bft) NW 0,25 h 20 W/m 8,8 C 11,0 C 16,8 km/h (3 Bft)
29.10.2016 18:00 11,6 C 84 % 1029,8 hPa 0,0 l/m 7,1 km/h (2 Bft) W-NW 0,00 h 0 W/m 9,0 C 11,0 C 15,5 km/h (3 Bft)
29.10.2016 19:00 11,7 C 84 % 1029,8 hPa 0,0 l/m 7,2 km/h (2 Bft) NW 0,00 h 0 W/m 9,0 C 10,9 C 14,7 km/h (3 Bft)
29.10.2016 20:00 11,7 C 85 % 1029,6 hPa 0,0 l/m 5,4 km/h (1 Bft) NW 0,00 h 0 W/m 9,2 C 11,6 C 12,2 km/h (2 Bft)
29.10.2016 21:00 11,5 C 86 % 1029,5 hPa 0,0 l/m 5,0 km/h (1 Bft) NW 0,00 h 0 W/m 9,3 C 11,4 C 12,1 km/h (2 Bft)
29.10.2016 22:00 11,6 C 86 % 1029,5 hPa 0,0 l/m 5,2 km/h (1 Bft) W-NW 0,00 h 0 W/m 9,3 C 11,6 C 12,0 km/h (2 Bft)
29.10.2016 23:00 11,5 C 87 % 1029,6 hPa 0,0 l/m 5,2 km/h (1 Bft) W 0,00 h 0 W/m 9,3 C 11,4 C 12,3 km/h (2 Bft)
30.10.2016 00:00 11,6 C 87 % 1029,4 hPa 0,0 l/m 4,9 km/h (1 Bft) W-NW 0,00 h 0 W/m 9,4 C 11,4 C 11,5 km/h (2 Bft)
30.10.2016 01:00 11,7 C 87 % 1029,3 hPa 0,0 l/m 4,4 km/h (1 Bft) NW 0,00 h 0 W/m 9,6 C 11,7 C 9,3 km/h (2 Bft)
30.10.2016 02:00 11,8 C 87 % 1029,1 hPa 0,0 l/m 5,3 km/h (1 Bft) NW 0,00 h 0 W/m 9,8 C 11,7 C 10,7 km/h (2 Bft)
30.10.2016 03:00 11,7 C 88 % 1028,5 hPa 0,0 l/m 3,3 km/h (1 Bft) NW 0,00 h 0 W/m 9,8 C 11,7 C 7,1 km/h (2 Bft)
30.10.2016 04:00 11,5 C 89 % 1028,6 hPa 0,0 l/m 5,6 km/h (2 Bft) N-NW 0,00 h 0 W/m 9,8 C 11,4 C 10,5 km/h (2 Bft)
30.10.2016 05:00 11,4 C 89 % 1028,3 hPa 0,0 l/m 4,2 km/h (1 Bft) NW 0,00 h 0 W/m 9,7 C 11,4 C 7,9 km/h (2 Bft)
30.10.2016 06:00 11,4 C 90 % 1028,1 hPa 0,0 l/m 1,4 km/h (1 Bft) W 0,00 h 0 W/m 9,7 C 11,4 C 3,8 km/h (1 Bft)
30.10.2016 07:00 11,2 C 90 % 1028,5 hPa 0,0 l/m 0,3 km/h (0 Bft) W 0,00 h 5 W/m 9,6 C 11,2 C 1,4 km/h (1 Bft)
30.10.2016 08:00 11,1 C 91 % 1028,9 hPa 0,0 l/m 1,3 km/h (1 Bft) W 0,00 h 16 W/m 9,8 C 11,1 C 3,0 km/h (1 Bft)
30.10.2016 09:00 11,5 C 92 % 1029,1 hPa 0,0 l/m 2,0 km/h (1 Bft) W 0,00 h 48 W/m 10,3 C 11,5 C 4,6 km/h (1 Bft)
30.10.2016 10:00 12,1 C 89 % 1029,4 hPa 0,0 l/m 2,5 km/h (1 Bft) N-NW 0,35 h 155 W/m 10,4 C 12,1 C 5,4 km/h (2 Bft)
30.10.2016 11:00 13,4 C 84 % 1029,3 hPa 0,0 l/m 3,1 km/h (1 Bft) NW 0,95 h 315 W/m 10,7 C 13,4 C 6,2 km/h (2 Bft)
30.10.2016 12:00 12,9 C 85 % 1029,1 hPa 0,0 l/m 1,9 km/h (1 Bft) N 0,25 h 160 W/m 10,5 C 12,9 C 4,9 km/h (1 Bft)
30.10.2016 13:00 13,0 C 83 % 1029,0 hPa 0,0 l/m 1,2 km/h (1 Bft) NW 0,10 h 124 W/m 10,3 C 13,0 C 3,5 km/h (1 Bft)
30.10.2016 14:00 12,6 C 83 % 1028,7 hPa 0,0 l/m 1,8 km/h (1 Bft) NW 0,00 h 68 W/m 9,8 C 12,6 C 4,1 km/h (1 Bft)
30.10.2016 15:00 12,4 C 85 % 1028,6 hPa 0,0 l/m 2,3 km/h (1 Bft) W 0,00 h 44 W/m 9,9 C 12,4 C 4,9 km/h (1 Bft)
30.10.2016 16:00 11,9 C 88 % 1028,5 hPa 0,0 l/m 2,3 km/h (1 Bft) W-SW 0,00 h 18 W/m 10,0 C 11,9 C 4,5 km/h (1 Bft)
30.10.2016 17:00 11,6 C 90 % 1028,8 hPa 0,0 l/m 2,2 km/h (1 Bft) W-SW 0,00 h 0 W/m 10,0 C 11,6 C 4,2 km/h (1 Bft)
30.10.2016 18:00 11,0 C 93 % 1028,8 hPa 0,0 l/m 4,9 km/h (1 Bft) SW 0,00 h 0 W/m 9,9 C 11,0 C 7,4 km/h (2 Bft)
30.10.2016 19:00 10,9 C 95 % 1028,9 hPa 0,0 l/m 3,4 km/h (1 Bft) SW 0,00 h 0 W/m 10,1 C 10,9 C 5,5 km/h (2 Bft)
30.10.2016 20:00 10,8 C 96 % 1028,9 hPa 0,0 l/m 2,2 km/h (1 Bft) SW 0,00 h 0 W/m 10,2 C 10,8 C 3,9 km/h (1 Bft)
30.10.2016 21:00 10,9 C 96 % 1028,9 hPa 0,0 l/m 1,3 km/h (1 Bft) S-SO 0,00 h 0 W/m 10,3 C 10,9 C 3,4 km/h (1 Bft)
30.10.2016 22:00 11,0 C 97 % 1028,8 hPa 0,0 l/m 1,4 km/h (1 Bft) S-SO 0,00 h 0 W/m 10,5 C 11,0 C 3,3 km/h (1 Bft)
30.10.2016 23:00 11,2 C 97 % 1028,4 hPa 0,0 l/m 2,2 km/h (1 Bft) S-SO 0,00 h 0 W/m 10,7 C 11,2 C 4,4 km/h (1 Bft)
Min-Datum _ 26.10.16 29.10.16 24.10.16 - 25.10.16 - - - 26.10.16 26.10.16 25.10.16
_ Min-Zeit 02:06 00:45 00:00 - 17:12 - - - 02:06 02:06 17:18
Minimum _ 0,5 C 73 % 1014,9 hPa - 0,0 km/h (0 Bft) - - - 0,1 C 0,5 C 0,0 km/h (0 Bft)
Max-Datum _ 28.10.16 26.10.16 29.10.16 27.10.16 28.10.16 - 26.10.16 25.10.16 28.10.16 30.10.16 28.10.16
_ Max-Zeit 14:09 07:03 10:27 01:45 02:18 - 14:45 14:06 14:12 11:57 04:54
Maximum _ 14,1 C 99 % 1031,1 hPa 0,4 l/m 25,2 km/h
SW (4 Bft)
- 0,25 h 450 W/m 13,5 C 13,9 C 38,6 km/h
SW (6 Bft)
Durchschnitt _ 9,4 C 92 % 1025,2 hPa #1,2 l/m 6,4 km/h (2 Bft) SW #7:03 h 89 W/m 8,1 C 8,2 C 12,3 km/h (2 Bft)
2016 Cux-Wetter.de -Die Nutzung der Wetterdaten nur mit ausdrcklicher Genehmigung